createdAt,value
2018-01-19T00:00:28.964Z,5.18
2018-01-19T00:01:03.022Z,5.62
2018-01-19T00:01:36.909Z,5.80
2018-01-19T00:02:10.844Z,5.18
2018-01-19T00:02:45.017Z,5.62
2018-01-19T00:03:18.946Z,5.60
2018-01-19T00:03:52.843Z,5.32
2018-01-19T00:04:26.742Z,5.07
2018-01-19T00:05:00.633Z,5.00
2018-01-19T00:05:34.527Z,5.37
2018-01-19T00:06:08.422Z,5.65
2018-01-19T00:06:42.327Z,4.72
2018-01-19T00:07:16.382Z,4.75
2018-01-19T00:07:50.686Z,4.62
2018-01-19T00:08:24.569Z,4.50
2018-01-19T00:08:58.557Z,3.72
2018-01-19T00:09:32.614Z,5.50
2018-01-19T00:10:06.506Z,5.10
2018-01-19T00:10:40.512Z,4.82
2018-01-19T00:11:14.447Z,5.18
2018-01-19T00:11:48.312Z,4.45
2018-01-19T00:12:22.339Z,4.85
2018-01-19T00:12:56.232Z,4.53
2018-01-19T00:13:30.092Z,4.43
2018-01-19T00:14:03.980Z,5.35
2018-01-19T00:14:37.917Z,4.47
2018-01-19T00:15:11.789Z,4.50
2018-01-19T00:15:45.705Z,4.50
2018-01-19T00:16:19.679Z,5.35
2018-01-19T00:16:53.637Z,4.40
2018-01-19T00:17:27.903Z,4.78
2018-01-19T00:18:01.817Z,4.50
2018-01-19T00:18:35.715Z,4.60
2018-01-19T00:19:09.610Z,4.82
2018-01-19T00:19:43.484Z,3.90
2018-01-19T00:20:17.396Z,4.12
2018-01-19T00:20:51.282Z,4.87
2018-01-19T00:21:25.169Z,4.90
2018-01-19T00:21:59.053Z,4.40
2018-01-19T00:22:38.728Z,4.18
2018-01-19T00:23:17.527Z,4.18
2018-01-19T00:23:51.454Z,4.65
2018-01-19T00:24:25.399Z,4.53
2018-01-19T00:24:59.344Z,4.55
2018-01-19T00:25:33.228Z,4.50
2018-01-19T00:26:07.304Z,4.47
2018-01-19T00:26:41.229Z,4.32
2018-01-19T00:27:15.176Z,4.75
2018-01-19T00:27:49.165Z,4.32
2018-01-19T00:28:23.052Z,4.10
2018-01-19T00:28:57.165Z,4.50
2018-01-19T00:29:31.062Z,4.00
2018-01-19T00:30:04.993Z,3.97
2018-01-19T00:30:38.994Z,3.95
2018-01-19T00:31:12.957Z,3.70
2018-01-19T00:31:46.848Z,4.12
2018-01-19T00:32:20.721Z,4.50
2018-01-19T00:32:54.644Z,3.90
2018-01-19T00:33:28.530Z,3.70
2018-01-19T00:34:02.437Z,4.53
2018-01-19T00:34:36.350Z,4.25
2018-01-19T00:35:10.228Z,4.20
2018-01-19T00:35:44.141Z,3.75
2018-01-19T00:36:18.023Z,4.10
2018-01-19T00:36:51.952Z,4.15
2018-01-19T00:37:25.848Z,3.70
2018-01-19T00:37:59.912Z,3.92
2018-01-19T00:38:33.828Z,3.72
2018-01-19T00:39:07.738Z,4.28
2018-01-19T00:39:41.703Z,3.97
2018-01-19T00:40:15.690Z,4.30
2018-01-19T00:40:49.591Z,3.40
2018-01-19T00:41:23.668Z,3.83
2018-01-19T00:41:57.561Z,5.40
2018-01-19T00:42:31.436Z,4.35
2018-01-19T00:43:05.353Z,4.20
2018-01-19T00:43:39.308Z,4.32
2018-01-19T00:44:13.244Z,4.53
2018-01-19T00:44:47.125Z,3.70
2018-01-19T00:45:21.051Z,4.15
2018-01-19T00:45:55.396Z,3.47
2018-01-19T00:46:29.320Z,4.00
2018-01-19T00:47:03.310Z,3.80
2018-01-19T00:47:37.258Z,4.20
2018-01-19T00:48:11.214Z,3.95
2018-01-19T00:48:45.183Z,4.30
2018-01-19T00:49:19.064Z,4.57
2018-01-19T00:49:52.988Z,3.70
2018-01-19T00:50:26.852Z,4.62
2018-01-19T00:51:00.865Z,3.92
2018-01-19T00:51:34.792Z,3.90
2018-01-19T00:52:08.722Z,4.47
2018-01-19T00:52:42.752Z,4.45
2018-01-19T00:53:16.789Z,4.10
2018-01-19T00:53:50.818Z,4.45
2018-01-19T00:54:24.736Z,4.60
2018-01-19T00:54:58.609Z,4.07
2018-01-19T00:55:32.548Z,4.10
2018-01-19T00:56:06.399Z,4.10
2018-01-19T00:56:40.272Z,4.47
2018-01-19T00:57:14.197Z,4.03
2018-01-19T00:57:48.141Z,3.70
2018-01-19T00:58:22.031Z,4.07
2018-01-19T00:58:55.970Z,3.75
2018-01-19T00:59:29.861Z,3.90
2018-01-19T01:00:03.774Z,3.97
2018-01-19T01:00:37.667Z,4.50
2018-01-19T01:01:11.810Z,4.30
2018-01-19T01:01:45.742Z,4.03
2018-01-19T01:02:19.634Z,4.07
2018-01-19T01:02:53.539Z,4.55
2018-01-19T01:03:27.390Z,3.75
2018-01-19T01:04:01.235Z,4.05
2018-01-19T01:04:35.183Z,4.40
2018-01-19T01:05:09.087Z,4.55
2018-01-19T01:05:43.000Z,4.12
2018-01-19T01:06:16.973Z,4.25
2018-01-19T01:06:50.871Z,4.47
2018-01-19T01:07:24.803Z,4.32
2018-01-19T01:07:58.870Z,4.00
2018-01-19T01:08:32.841Z,3.60
2018-01-19T01:09:06.745Z,5.28
2018-01-19T01:09:40.641Z,4.00
2018-01-19T01:10:14.526Z,4.85
2018-01-19T01:10:48.381Z,3.80
2018-01-19T01:11:22.343Z,5.05
2018-01-19T01:11:56.323Z,4.28
2018-01-19T01:12:30.232Z,4.20
2018-01-19T01:13:04.107Z,4.60
2018-01-19T01:13:37.964Z,4.53
2018-01-19T01:14:11.884Z,3.95
2018-01-19T01:14:45.788Z,3.83
2018-01-19T01:15:19.702Z,4.50
2018-01-19T01:15:53.627Z,4.45
2018-01-19T01:16:27.562Z,5.18
2018-01-19T01:17:01.460Z,4.22
2018-01-19T01:17:35.328Z,4.43
2018-01-19T01:18:09.211Z,4.40
2018-01-19T01:18:43.144Z,5.00
2018-01-19T01:19:17.069Z,4.35
2018-01-19T01:19:50.956Z,4.30
2018-01-19T01:20:25.013Z,4.45
2018-01-19T01:20:58.884Z,4.37
2018-01-19T01:21:32.779Z,4.20
2018-01-19T01:22:06.680Z,3.90
2018-01-19T01:22:40.841Z,4.32
2018-01-19T01:23:14.744Z,3.87
2018-01-19T01:23:48.619Z,4.90
2018-01-19T01:24:22.663Z,4.20
2018-01-19T01:24:56.659Z,4.65
2018-01-19T01:25:30.722Z,4.47
2018-01-19T01:26:04.633Z,4.85
2018-01-19T01:26:38.928Z,3.97
2018-01-19T01:27:13.105Z,4.70
2018-01-19T01:27:47.040Z,4.00
2018-01-19T01:28:22.151Z,3.97
2018-01-19T01:28:56.142Z,4.12
2018-01-19T01:29:30.049Z,4.10
2018-01-19T01:30:04.142Z,3.95
2018-01-19T01:30:38.221Z,4.72
2018-01-19T01:31:12.152Z,4.50
2018-01-19T01:31:46.161Z,4.47
2018-01-19T01:32:20.120Z,4.20
2018-01-19T01:32:54.025Z,4.55
2018-01-19T01:33:28.129Z,4.40
2018-01-19T01:34:02.002Z,4.80
2018-01-19T01:34:36.222Z,5.37
2018-01-19T01:35:10.169Z,4.35
2018-01-19T01:35:44.098Z,4.60
2018-01-19T01:36:17.989Z,4.57
2018-01-19T01:36:52.064Z,4.20
2018-01-19T01:37:26.093Z,4.75
2018-01-19T01:38:02.409Z,4.10
2018-01-19T01:38:36.305Z,4.80
2018-01-19T01:39:10.644Z,4.90
2018-01-19T01:39:45.223Z,4.90
2018-01-19T01:40:19.120Z,4.78
2018-01-19T01:40:53.301Z,4.72
2018-01-19T01:41:27.206Z,4.87
2018-01-19T01:42:01.169Z,4.40
2018-01-19T01:42:35.132Z,4.90
2018-01-19T01:43:08.997Z,5.50
2018-01-19T01:43:42.898Z,4.55
2018-01-19T01:44:16.875Z,5.22
2018-01-19T01:44:50.757Z,5.20
2018-01-19T01:45:24.607Z,5.28
2018-01-19T01:45:58.568Z,5.10
2018-01-19T01:46:32.493Z,4.47
2018-01-19T01:47:06.439Z,5.00
2018-01-19T01:47:40.370Z,5.28
2018-01-19T01:48:14.440Z,5.20
2018-01-19T01:48:54.074Z,5.12
2018-01-19T01:49:28.008Z,6.05
2018-01-19T01:50:01.942Z,5.15
2018-01-19T01:50:35.835Z,5.15
2018-01-19T01:51:09.805Z,4.85
2018-01-19T01:51:43.692Z,5.20
2018-01-19T01:52:17.607Z,5.60
2018-01-19T01:52:51.528Z,5.37
2018-01-19T01:53:25.406Z,4.97
2018-01-19T01:53:59.287Z,5.20
2018-01-19T01:54:33.141Z,5.07
2018-01-19T01:55:07.028Z,5.30
2018-01-19T01:55:40.901Z,5.15
2018-01-19T01:56:14.748Z,5.30
2018-01-19T01:56:48.659Z,6.12
2018-01-19T01:57:22.518Z,5.15
2018-01-19T01:57:56.497Z,5.35
2018-01-19T01:58:30.406Z,5.70
2018-01-19T01:59:04.329Z,5.50
2018-01-19T01:59:38.352Z,5.30
2018-01-19T02:00:12.237Z,6.20
2018-01-19T02:00:46.106Z,5.70
2018-01-19T02:01:20.033Z,6.45
2018-01-19T02:01:54.032Z,4.65
2018-01-19T02:02:28.001Z,4.80
2018-01-19T02:03:01.948Z,5.25
2018-01-19T02:03:35.805Z,4.87
2018-01-19T02:04:09.726Z,5.12
2018-01-19T02:04:43.732Z,4.95
2018-01-19T02:05:17.605Z,5.03
2018-01-19T02:05:51.549Z,5.05
2018-01-19T02:06:25.432Z,4.85
2018-01-19T02:06:59.329Z,5.10
2018-01-19T02:07:33.211Z,4.87
2018-01-19T02:08:07.095Z,5.65
2018-01-19T02:08:41.050Z,5.12
2018-01-19T02:09:14.985Z,4.87
2018-01-19T02:09:49.021Z,5.10
2018-01-19T02:10:22.912Z,4.75
2018-01-19T02:10:56.833Z,5.40
2018-01-19T02:11:30.728Z,5.43
2018-01-19T02:12:04.631Z,5.15
2018-01-19T02:12:38.522Z,5.43
2018-01-19T02:13:12.414Z,5.50
2018-01-19T02:13:46.366Z,5.65
2018-01-19T02:14:20.261Z,5.50
2018-01-19T02:14:54.364Z,5.50
2018-01-19T02:15:28.306Z,5.32
2018-01-19T02:16:02.231Z,5.45
2018-01-19T02:16:36.123Z,5.37
2018-01-19T02:17:09.984Z,5.50
2018-01-19T02:17:43.913Z,5.00
2018-01-19T02:18:17.838Z,5.18
2018-01-19T02:18:51.725Z,4.25
2018-01-19T02:19:25.666Z,5.03
2018-01-19T02:19:59.616Z,5.28
2018-01-19T02:20:33.514Z,5.22
2018-01-19T02:21:07.368Z,5.57
2018-01-19T02:21:41.228Z,4.97
2018-01-19T02:22:15.089Z,5.40
2018-01-19T02:22:48.963Z,5.53
2018-01-19T02:23:22.866Z,5.05
2018-01-19T02:23:56.962Z,5.12
2018-01-19T02:24:30.871Z,5.72
2018-01-19T02:25:04.759Z,5.25
2018-01-19T02:25:38.680Z,5.37
2018-01-19T02:26:12.681Z,5.20
2018-01-19T02:26:46.540Z,4.70
2018-01-19T02:27:20.525Z,4.95
2018-01-19T02:27:54.428Z,4.90
2018-01-19T02:28:28.341Z,4.80
2018-01-19T02:29:02.343Z,4.70
2018-01-19T02:29:36.212Z,4.45
2018-01-19T02:30:10.140Z,4.60
2018-01-19T02:30:44.080Z,4.50
2018-01-19T02:31:17.970Z,4.85
2018-01-19T02:31:51.867Z,4.70
2018-01-19T02:32:25.960Z,4.82
2018-01-19T02:32:59.911Z,4.70
2018-01-19T02:33:33.888Z,4.15
2018-01-19T02:34:07.938Z,4.87
2018-01-19T02:34:41.956Z,4.80
2018-01-19T02:35:15.993Z,5.57
2018-01-19T02:35:49.928Z,4.87
2018-01-19T02:36:23.873Z,4.40
2018-01-19T02:36:57.818Z,4.45
2018-01-19T02:37:31.701Z,4.15
2018-01-19T02:38:05.638Z,4.47
2018-01-19T02:38:39.537Z,4.87
2018-01-19T02:39:13.427Z,4.43
2018-01-19T02:39:47.353Z,4.20
2018-01-19T02:40:21.286Z,4.30
2018-01-19T02:40:55.288Z,4.40
2018-01-19T02:41:29.159Z,4.43
2018-01-19T02:42:03.113Z,4.90
2018-01-19T02:42:37.037Z,4.37
2018-01-19T02:43:10.914Z,4.75
2018-01-19T02:43:44.861Z,4.70
2018-01-19T02:44:18.765Z,4.62
2018-01-19T02:44:52.615Z,4.70
2018-01-19T02:45:26.515Z,4.60
2018-01-19T02:46:00.502Z,4.62
2018-01-19T02:46:34.389Z,4.85
2018-01-19T02:47:08.256Z,5.25
2018-01-19T02:47:42.126Z,4.45
2018-01-19T02:48:16.026Z,4.72
2018-01-19T02:48:50.027Z,4.80
2018-01-19T02:49:24.021Z,4.80
2018-01-19T02:49:58.118Z,5.03
2018-01-19T02:50:32.057Z,4.55
2018-01-19T02:51:06.136Z,4.87
2018-01-19T02:51:40.072Z,4.90
2018-01-19T02:52:13.953Z,5.10
2018-01-19T02:52:48.012Z,4.43
2018-01-19T02:53:21.901Z,5.30
2018-01-19T02:53:55.858Z,5.03
2018-01-19T02:54:29.748Z,4.90
2018-01-19T02:55:03.609Z,4.68
2018-01-19T02:55:37.562Z,5.55
2018-01-19T02:56:11.515Z,5.50
2018-01-19T02:56:45.488Z,4.55
2018-01-19T02:57:19.351Z,5.35
2018-01-19T02:57:53.260Z,4.68
2018-01-19T02:58:27.223Z,4.68
2018-01-19T02:59:01.136Z,4.40
2018-01-19T02:59:35.021Z,5.15
2018-01-19T03:00:08.964Z,5.00
2018-01-19T03:00:42.885Z,5.22
2018-01-19T03:01:16.771Z,4.78
2018-01-19T03:01:50.715Z,4.95
2018-01-19T03:02:24.626Z,4.78
2018-01-19T03:02:58.585Z,5.00
2018-01-19T03:03:32.517Z,5.18
2018-01-19T03:04:06.591Z,4.85
2018-01-19T03:04:40.518Z,4.43
2018-01-19T03:05:14.622Z,4.90
2018-01-19T03:05:48.528Z,4.90
2018-01-19T03:06:22.470Z,5.32
2018-01-19T03:06:56.422Z,5.30
2018-01-19T03:07:30.380Z,5.05
2018-01-19T03:08:04.350Z,4.47
2018-01-19T03:08:38.270Z,5.45
2018-01-19T03:09:12.175Z,5.03
2018-01-19T03:09:46.081Z,4.75
2018-01-19T03:10:19.975Z,5.15
2018-01-19T03:10:53.950Z,4.85
2018-01-19T03:11:28.087Z,4.90
2018-01-19T03:12:02.186Z,4.55
2018-01-19T03:12:36.109Z,5.10
2018-01-19T03:13:10.081Z,5.25
2018-01-19T03:13:44.021Z,4.75
2018-01-19T03:14:17.904Z,4.53
2018-01-19T03:14:51.803Z,4.90
2018-01-19T03:15:26.252Z,4.78
2018-01-19T03:16:00.229Z,5.68
2018-01-19T03:16:34.339Z,4.20
2018-01-19T03:17:08.303Z,4.60
2018-01-19T03:17:42.468Z,5.07
2018-01-19T03:18:16.539Z,4.78
2018-01-19T03:18:50.408Z,4.80
2018-01-19T03:19:24.499Z,4.50
2018-01-19T03:19:58.572Z,4.30
2018-01-19T03:20:33.606Z,4.47
2018-01-19T03:21:07.832Z,4.87
2018-01-19T03:21:42.002Z,4.47
2018-01-19T03:22:16.165Z,4.55
2018-01-19T03:22:50.415Z,4.40
2018-01-19T03:23:24.960Z,4.15
2018-01-19T03:23:59.020Z,3.65
2018-01-19T03:24:32.958Z,3.95
2018-01-19T03:25:07.223Z,4.35
2018-01-19T03:25:41.152Z,4.25
2018-01-19T03:26:15.303Z,3.92
2018-01-19T03:26:49.508Z,3.80
2018-01-19T03:27:23.619Z,4.15
2018-01-19T03:27:57.628Z,4.90
2018-01-19T03:28:31.601Z,4.60
2018-01-19T03:29:05.808Z,4.47
2018-01-19T03:29:39.849Z,3.90
2018-01-19T03:30:15.847Z,4.50
2018-01-19T03:30:49.942Z,4.32
2018-01-19T03:31:23.811Z,4.07
2018-01-19T03:31:58.046Z,4.10
2018-01-19T03:32:32.164Z,4.07
2018-01-19T03:33:06.353Z,4.20
2018-01-19T03:33:40.569Z,4.40
2018-01-19T03:34:14.520Z,4.43
2018-01-19T03:34:48.509Z,4.32
2018-01-19T03:35:22.646Z,4.50
2018-01-19T03:35:56.609Z,3.83
2018-01-19T03:36:30.641Z,4.15
2018-01-19T03:37:04.542Z,3.90
2018-01-19T03:37:38.523Z,4.53
2018-01-19T03:38:13.109Z,3.67
2018-01-19T03:38:47.042Z,4.50
2018-01-19T03:39:21.088Z,4.70
2018-01-19T03:39:55.035Z,4.15
2018-01-19T03:40:29.084Z,4.62
2018-01-19T03:41:03.116Z,4.10
2018-01-19T03:41:37.288Z,3.75
2018-01-19T03:42:11.187Z,4.40
2018-01-19T03:42:45.162Z,4.10
2018-01-19T03:43:19.027Z,4.05
2018-01-19T03:43:52.904Z,4.53
2018-01-19T03:44:27.009Z,4.25
2018-01-19T03:45:00.900Z,3.90
2018-01-19T03:45:34.788Z,4.55
2018-01-19T03:46:08.652Z,3.78
2018-01-19T03:46:42.627Z,3.80
2018-01-19T03:47:16.554Z,4.68
2018-01-19T03:47:50.469Z,4.72
2018-01-19T03:48:24.466Z,4.00
2018-01-19T03:48:58.385Z,3.95
2018-01-19T03:49:32.262Z,3.87
2018-01-19T03:50:06.354Z,3.53
2018-01-19T03:50:40.320Z,4.43
2018-01-19T03:51:14.351Z,4.05
2018-01-19T03:51:48.217Z,4.30
2018-01-19T03:52:22.204Z,3.85
2018-01-19T03:52:56.099Z,4.07
2018-01-19T03:53:29.998Z,4.22
2018-01-19T03:54:03.920Z,4.40
2018-01-19T03:54:37.791Z,3.92
2018-01-19T03:55:11.734Z,4.50
2018-01-19T03:55:45.588Z,4.43
2018-01-19T03:56:19.447Z,4.18
2018-01-19T03:56:53.380Z,4.10
2018-01-19T03:57:27.381Z,4.55
2018-01-19T03:58:01.324Z,4.03
2018-01-19T03:58:35.817Z,4.28
2018-01-19T03:59:09.777Z,4.10
2018-01-19T03:59:43.682Z,4.40
2018-01-19T04:00:17.692Z,3.80
2018-01-19T04:00:51.758Z,4.35
2018-01-19T04:01:25.795Z,3.95
2018-01-19T04:01:59.709Z,4.03
2018-01-19T04:02:33.748Z,4.12
2018-01-19T04:03:10.696Z,4.15
2018-01-19T04:03:45.619Z,4.50
2018-01-19T04:04:19.467Z,3.65
2018-01-19T04:04:54.585Z,4.43
2018-01-19T04:05:28.480Z,4.40
2018-01-19T04:06:02.373Z,3.75
2018-01-19T04:06:36.336Z,4.05
2018-01-19T04:07:10.181Z,3.87
2018-01-19T04:07:44.054Z,4.18
2018-01-19T04:08:17.957Z,4.30
2018-01-19T04:08:51.915Z,4.22
2018-01-19T04:09:25.900Z,7.85
2018-01-19T04:09:59.761Z,9.77
2018-01-19T04:10:34.087Z,5.57
2018-01-19T04:11:07.936Z,6.47
2018-01-19T04:11:41.833Z,5.82
2018-01-19T04:12:15.772Z,4.95
2018-01-19T04:12:49.714Z,5.43
2018-01-19T04:13:23.585Z,5.20
2018-01-19T04:13:57.452Z,5.32
2018-01-19T04:14:31.354Z,5.80
2018-01-19T04:15:05.237Z,6.75
2018-01-19T04:15:39.213Z,8.02
2018-01-19T04:16:13.085Z,7.00
2018-01-19T04:16:46.937Z,5.55
2018-01-19T04:17:20.844Z,6.35
2018-01-19T04:17:54.745Z,8.13
2018-01-19T04:18:28.686Z,5.78
2018-01-19T04:19:02.565Z,5.20
2018-01-19T04:19:36.460Z,4.75
2018-01-19T04:20:10.343Z,3.80
2018-01-19T04:20:44.303Z,3.90
2018-01-19T04:21:18.237Z,4.50
2018-01-19T04:21:52.148Z,4.30
2018-01-19T04:22:26.033Z,6.85
2018-01-19T04:22:59.954Z,5.28
2018-01-19T04:23:33.883Z,4.78
2018-01-19T04:24:07.772Z,5.05
2018-01-19T04:24:41.684Z,5.20
2018-01-19T04:25:15.706Z,5.45
2018-01-19T04:25:49.595Z,4.85
2018-01-19T04:26:23.504Z,4.55
2018-01-19T04:26:57.443Z,4.18
2018-01-19T04:27:31.317Z,4.07
2018-01-19T04:28:05.196Z,4.30
2018-01-19T04:28:39.072Z,3.53
2018-01-19T04:29:12.976Z,4.20
2018-01-19T04:29:46.837Z,3.40
2018-01-19T04:30:20.673Z,4.00
2018-01-19T04:30:54.615Z,3.90
2018-01-19T04:31:28.530Z,3.78
2018-01-19T04:32:02.384Z,4.10
2018-01-19T04:32:36.336Z,3.90
2018-01-19T04:33:10.211Z,3.67
2018-01-19T04:33:44.066Z,4.75
2018-01-19T04:34:17.921Z,4.03
2018-01-19T04:34:51.856Z,4.25
2018-01-19T04:35:25.727Z,4.15
2018-01-19T04:35:59.660Z,4.65
2018-01-19T04:36:33.561Z,3.83
2018-01-19T04:37:07.456Z,4.55
2018-01-19T04:37:41.533Z,4.00
2018-01-19T04:38:15.443Z,4.68
2018-01-19T04:38:49.361Z,4.55
2018-01-19T04:39:23.256Z,4.97
2018-01-19T04:39:57.271Z,4.70
2018-01-19T04:40:31.371Z,4.60
2018-01-19T04:41:05.266Z,3.97
2018-01-19T04:41:39.262Z,4.55
2018-01-19T04:42:13.233Z,4.68
2018-01-19T04:42:47.170Z,9.10
2018-01-19T04:43:21.147Z,13.20
2018-01-19T04:43:55.101Z,12.48
2018-01-19T04:44:28.985Z,8.88
2018-01-19T04:45:02.888Z,5.12
2018-01-19T04:45:36.754Z,5.40
2018-01-19T04:46:10.686Z,4.55
2018-01-19T04:46:44.617Z,5.40
2018-01-19T04:47:18.649Z,4.50
2018-01-19T04:47:52.583Z,4.47
2018-01-19T04:48:26.454Z,4.45
2018-01-19T04:49:00.477Z,4.60
2018-01-19T04:49:34.426Z,4.00
2018-01-19T04:50:08.349Z,3.70
2018-01-19T04:50:42.358Z,4.00
2018-01-19T04:51:16.265Z,4.40
2018-01-19T04:51:50.348Z,3.75
2018-01-19T04:52:24.329Z,4.30
2018-01-19T04:52:58.246Z,4.40
2018-01-19T04:53:32.140Z,5.05
2018-01-19T04:54:06.834Z,3.62
2018-01-19T04:54:40.847Z,4.68
2018-01-19T04:55:14.746Z,4.35
2018-01-19T04:55:48.638Z,4.30
2018-01-19T04:56:22.602Z,4.55
2018-01-19T04:56:56.513Z,3.87
2018-01-19T04:57:30.472Z,3.85
2018-01-19T04:58:04.468Z,3.72
2018-01-19T04:58:38.533Z,4.22
2018-01-19T04:59:12.465Z,4.30
2018-01-19T04:59:46.436Z,4.25
2018-01-19T05:00:20.519Z,4.72
2018-01-19T05:00:54.477Z,4.43
2018-01-19T05:01:28.367Z,4.53
2018-01-19T05:02:02.397Z,4.32
2018-01-19T05:02:36.294Z,4.43
2018-01-19T05:03:10.338Z,4.32
2018-01-19T05:03:44.220Z,4.65
2018-01-19T05:04:18.337Z,4.82
2018-01-19T05:04:53.216Z,4.72
2018-01-19T05:05:27.179Z,4.85
2018-01-19T05:06:01.065Z,4.75
2018-01-19T05:06:34.991Z,4.15
2018-01-19T05:07:08.840Z,3.90
2018-01-19T05:07:42.757Z,3.75
2018-01-19T05:08:16.664Z,4.40
2018-01-19T05:08:50.725Z,4.22
2018-01-19T05:09:24.626Z,3.78
2018-01-19T05:09:58.551Z,3.90
2018-01-19T05:10:32.437Z,4.28
2018-01-19T05:11:06.354Z,4.18
2018-01-19T05:12:20.500Z,4.93
2018-01-19T05:12:54.419Z,5.40
2018-01-19T05:13:28.419Z,5.25
2018-01-19T05:14:02.299Z,4.57
2018-01-19T05:14:36.180Z,4.45
2018-01-19T05:15:10.061Z,5.10
2018-01-19T05:15:43.936Z,4.43
2018-01-19T05:16:17.869Z,4.55
2018-01-19T05:16:51.886Z,4.82
2018-01-19T05:17:25.824Z,5.03
2018-01-19T05:17:59.746Z,5.18
2018-01-19T05:18:33.601Z,4.72
2018-01-19T05:19:07.501Z,4.40
2018-01-19T05:19:41.482Z,3.75
2018-01-19T05:20:15.414Z,5.87
2018-01-19T05:20:49.378Z,5.82
2018-01-19T05:21:23.468Z,5.35
2018-01-19T05:21:57.452Z,5.18
2018-01-19T05:22:31.416Z,5.28
2018-01-19T05:23:05.514Z,4.22
2018-01-19T05:23:39.697Z,5.15
2018-01-19T05:24:13.585Z,5.75
2018-01-19T05:24:47.447Z,4.93
2018-01-19T05:25:21.587Z,4.85
2018-01-19T05:25:55.517Z,5.28
2018-01-19T05:26:29.488Z,5.30
2018-01-19T05:27:03.471Z,4.40
2018-01-19T05:27:37.676Z,5.28
2018-01-19T05:28:11.771Z,4.93
2018-01-19T05:28:45.670Z,5.12
2018-01-19T05:29:19.559Z,4.95
2018-01-19T05:29:53.432Z,3.95
2018-01-19T05:30:27.562Z,5.00
2018-01-19T05:31:01.470Z,4.60
2018-01-19T05:31:35.340Z,5.00
2018-01-19T05:32:09.302Z,5.55
2018-01-19T05:32:43.193Z,4.37
2018-01-19T05:33:17.046Z,5.45
2018-01-19T05:33:50.927Z,4.90
2018-01-19T05:34:24.818Z,5.12
2018-01-19T05:34:58.801Z,5.10
2018-01-19T05:35:32.817Z,4.12
2018-01-19T05:36:06.735Z,5.05
2018-01-19T05:36:40.666Z,7.50
2018-01-19T05:37:14.918Z,6.30
2018-01-19T05:37:48.934Z,5.70
2018-01-19T05:38:22.840Z,4.43
2018-01-19T05:38:56.708Z,4.87
2018-01-19T05:39:30.711Z,5.72
2018-01-19T05:40:04.589Z,4.78
2018-01-19T05:40:38.467Z,4.32
2018-01-19T05:41:12.370Z,5.37
2018-01-19T05:41:46.273Z,5.28
2018-01-19T05:42:20.227Z,4.45
2018-01-19T05:42:54.128Z,4.75
2018-01-19T05:43:28.073Z,5.15
2018-01-19T05:44:01.949Z,4.30
2018-01-19T05:44:35.851Z,4.62
2018-01-19T05:45:09.766Z,4.60
2018-01-19T05:45:43.649Z,4.95
2018-01-19T05:46:17.552Z,6.37
2018-01-19T05:46:51.533Z,5.30
2018-01-19T05:47:25.648Z,5.50
2018-01-19T05:47:59.561Z,5.50
2018-01-19T05:48:33.433Z,4.50
2018-01-19T05:49:07.365Z,5.03
2018-01-19T05:49:41.269Z,5.00
2018-01-19T05:50:15.153Z,4.87
2018-01-19T05:50:49.014Z,5.35
2018-01-19T05:51:22.871Z,5.55
2018-01-19T05:51:56.908Z,5.87
2018-01-19T05:52:30.799Z,4.93
2018-01-19T05:53:04.786Z,5.12
2018-01-19T05:53:38.672Z,6.45
2018-01-19T05:54:12.700Z,6.82
2018-01-19T05:54:46.639Z,6.50
2018-01-19T05:55:20.518Z,6.22
2018-01-19T05:55:54.445Z,5.95
2018-01-19T05:56:28.416Z,6.07
2018-01-19T05:57:02.325Z,5.82
2018-01-19T05:57:36.396Z,5.50
2018-01-19T05:58:10.453Z,6.53
2018-01-19T05:58:44.340Z,6.25
2018-01-19T05:59:18.387Z,5.47
2018-01-19T05:59:52.245Z,5.80
2018-01-19T06:00:26.258Z,5.50
2018-01-19T06:01:01.276Z,6.07
2018-01-19T06:01:35.247Z,5.72
2018-01-19T06:02:09.516Z,5.37
2018-01-19T06:02:43.458Z,7.22
2018-01-19T06:03:17.539Z,6.65
2018-01-19T06:03:51.927Z,6.53
2018-01-19T06:04:25.805Z,5.90
2018-01-19T06:04:59.769Z,7.03
2018-01-19T06:05:33.664Z,6.37
2018-01-19T06:06:07.610Z,5.70
2018-01-19T06:06:41.603Z,5.50
2018-01-19T06:07:15.507Z,5.47
2018-01-19T06:07:49.595Z,5.80
2018-01-19T06:08:23.716Z,6.55
2018-01-19T06:08:57.815Z,5.65
2018-01-19T06:09:31.668Z,5.20
2018-01-19T06:10:05.706Z,6.18
2018-01-19T06:10:39.588Z,5.65
2018-01-19T06:11:13.523Z,5.90
2018-01-19T06:11:47.516Z,5.37
2018-01-19T06:12:21.581Z,5.80
2018-01-19T06:12:55.577Z,6.10
2018-01-19T06:13:29.437Z,6.37
2018-01-19T06:14:03.451Z,5.95
2018-01-19T06:14:37.453Z,5.40
2018-01-19T06:15:11.396Z,5.65
2018-01-19T06:15:45.329Z,5.80
2018-01-19T06:16:19.210Z,6.55
2018-01-19T06:16:53.117Z,6.80
2018-01-19T06:17:27.022Z,7.65
2018-01-19T06:18:01.131Z,8.00
2018-01-19T06:18:35.028Z,7.12
2018-01-19T06:19:09.039Z,7.55
2018-01-19T06:19:42.922Z,6.80
2018-01-19T06:20:17.003Z,6.82
2018-01-19T06:20:50.972Z,5.95
2018-01-19T06:21:24.849Z,6.45
2018-01-19T06:21:58.760Z,6.75
2018-01-19T06:22:32.635Z,6.90
2018-01-19T06:23:06.560Z,6.00
2018-01-19T06:23:40.531Z,7.00
2018-01-19T06:24:14.468Z,5.78
2018-01-19T06:24:48.381Z,6.82
2018-01-19T06:25:22.366Z,7.10
2018-01-19T06:25:56.309Z,6.10
2018-01-19T06:26:30.216Z,6.35
2018-01-19T06:27:04.105Z,6.43
2018-01-19T06:27:38.124Z,6.10
2018-01-19T06:28:12.104Z,7.05
2018-01-19T06:28:46.030Z,6.62
2018-01-19T06:29:19.961Z,6.68
2018-01-19T06:29:53.912Z,5.75
2018-01-19T06:30:27.831Z,6.20
2018-01-19T06:31:01.723Z,6.32
2018-01-19T06:31:35.660Z,6.30
2018-01-19T06:32:09.573Z,7.03
2018-01-19T06:32:43.609Z,6.15
2018-01-19T06:33:19.174Z,5.50
2018-01-19T06:33:53.106Z,6.82
2018-01-19T06:34:27.269Z,6.50
2018-01-19T06:35:01.299Z,5.85
2018-01-19T06:35:35.225Z,8.35
2018-01-19T06:36:09.347Z,7.28
2018-01-19T06:36:43.214Z,8.07
2018-01-19T06:37:17.265Z,7.03
2018-01-19T06:37:51.341Z,8.27
2018-01-19T06:38:25.281Z,9.02
2018-01-19T06:38:59.347Z,7.45
2018-01-19T06:39:33.408Z,7.45
2018-01-19T06:40:07.273Z,7.70
2018-01-19T06:40:41.274Z,7.18
2018-01-19T06:41:15.165Z,8.63
2018-01-19T06:41:49.129Z,8.32
2018-01-19T06:42:23.081Z,9.27
2018-01-19T06:42:57.111Z,7.65
2018-01-19T06:43:31.120Z,7.85
2018-01-19T06:44:05.102Z,7.87
2018-01-19T06:44:39.050Z,7.15
2018-01-19T06:45:13.120Z,7.40
2018-01-19T06:45:47.078Z,7.55
2018-01-19T06:46:20.989Z,7.15
2018-01-19T06:46:54.937Z,7.32
2018-01-19T06:47:28.856Z,7.70
2018-01-19T06:48:02.737Z,7.45
2018-01-19T06:48:36.714Z,8.88
2018-01-19T06:49:10.770Z,8.50
2018-01-19T06:49:44.778Z,9.93
2018-01-19T06:50:18.645Z,8.88
2018-01-19T06:50:54.312Z,8.27
2018-01-19T06:51:28.205Z,8.35
2018-01-19T06:52:02.104Z,8.35
2018-01-19T06:52:36.071Z,7.60
2018-01-19T06:53:10.159Z,8.07
2018-01-19T06:53:44.155Z,9.05
2018-01-19T06:54:18.088Z,9.13
2018-01-19T06:54:52.113Z,7.80
2018-01-19T06:55:26.008Z,8.73
2018-01-19T06:56:00.054Z,8.60
2018-01-19T06:56:33.986Z,7.45
2018-01-19T06:57:07.937Z,9.55
2018-01-19T06:57:41.862Z,9.55
2018-01-19T06:58:15.880Z,8.82
2018-01-19T06:58:49.926Z,10.73
2018-01-19T06:59:23.861Z,10.80
2018-01-19T06:59:57.780Z,10.10
2018-01-19T07:00:31.645Z,11.77
2018-01-19T07:01:05.672Z,11.27
2018-01-19T07:01:39.919Z,10.90
2018-01-19T07:02:13.860Z,13.40
2018-01-19T07:02:47.761Z,12.37
2018-01-19T07:03:21.910Z,12.00
2018-01-19T07:03:55.951Z,13.43
2018-01-19T07:04:30.156Z,12.35
2018-01-19T07:05:04.109Z,12.93
2018-01-19T07:05:38.012Z,14.65
2018-01-19T07:06:11.961Z,10.55
2018-01-19T07:06:45.844Z,10.77
2018-01-19T07:07:19.705Z,12.10
2018-01-19T07:07:53.570Z,19.80
2018-01-19T07:08:27.436Z,16.37
2018-01-19T07:09:01.358Z,13.48
2018-01-19T07:09:35.298Z,15.73
2018-01-19T07:10:09.305Z,16.62
2018-01-19T07:10:43.296Z,15.38
2018-01-19T07:11:17.332Z,13.70
2018-01-19T07:11:51.364Z,12.52
2018-01-19T07:12:26.101Z,12.25
2018-01-19T07:13:00.054Z,19.15
2018-01-19T07:13:34.213Z,13.13
2018-01-19T07:14:08.144Z,13.95
2018-01-19T07:14:42.066Z,13.70
2018-01-19T07:15:15.986Z,13.10
2018-01-19T07:15:50.229Z,17.45
2018-01-19T07:16:24.122Z,17.15
2018-01-19T07:16:58.129Z,17.20
2018-01-19T07:17:32.078Z,19.75
2018-01-19T07:18:06.010Z,16.37
2018-01-19T07:18:40.164Z,21.75
2018-01-19T07:19:14.347Z,21.27
2018-01-19T07:19:48.272Z,12.70
2018-01-19T07:20:22.142Z,15.20
2018-01-19T07:20:56.082Z,21.48
2018-01-19T07:21:30.317Z,16.08
2018-01-19T07:22:04.298Z,13.05
2018-01-19T07:22:38.251Z,13.05
2018-01-19T07:23:12.302Z,12.25
2018-01-19T07:23:46.262Z,12.80
2018-01-19T07:24:20.182Z,11.75
2018-01-19T07:24:54.128Z,14.43
2018-01-19T07:25:28.034Z,11.85
2018-01-19T07:26:02.007Z,11.70
2018-01-19T07:26:35.888Z,11.75
2018-01-19T07:27:09.807Z,10.23
2018-01-19T07:27:43.868Z,10.27
2018-01-19T07:28:17.811Z,15.50
2018-01-19T07:28:51.826Z,20.95
2018-01-19T07:29:25.731Z,16.87
2018-01-19T07:29:59.834Z,16.15
2018-01-19T07:30:34.803Z,17.20
2018-01-19T07:31:08.680Z,15.18
2018-01-19T07:31:42.628Z,17.70
2018-01-19T07:32:17.626Z,15.18